الصفحة الرئيسية
METAR-TAF:

METAR-TAF

مطار :

Kirkenes, النرويج

دائرة عرض: 69-44N, خط طول: 029-54E, ارتفاع: 9 متر

مراقبة الطقس الحالي

تاريخ ووقت الإصدار 31 دقيقة قبل الساعة 14:50UTC
ريح 4 عقدة من الشمال
درجة الحرارة 18°درجة مئوية
الرطوبة 56%
ضغط 1013 hPa
الرؤية 10 كم أو أكثر
غيوم قليلة على ارتفاع 4300 قدم

METAR: ENKR 161450Z 35004KT 9999 FEW043 18/09 Q1013 RMK WIND 731FT 33003KT

زمن: 17:21 (15:21 UTC)

توقعات

تاريخ ووقت الإصدار 1ساعة و 21 دقيقة قبل الساعة 14:00UTC
التوقعات صالحة من16 الساعة 15 UTC إلى 16 الساعة 24 UTC
ريح 6 عقدة من الشمال/الشمال الشرقي
الرؤية 10 كم أو أكثر
غيوم قليلة على ارتفاع 3000 قدم, مزن ركامية عمودية.
غيوم مفككة على ارتفاع 7000 قدم
مؤقت
من 16 الساعة 15 UTC إلى 16 الساعة 19 UTC
غيوم قليلة على ارتفاع 4000 قدم, مزنة ركامية.
نظرية الاحتمالات 40% :
مؤقت
من 16 الساعة 19 UTC إلى 16 الساعة 23 UTC
غيوم مفككة على ارتفاع 800 قدم
غيوم متفرقة على ارتفاع 4000 قدم, مزنة ركامية.
زخات من المطر,

TAF: ENKR 161400Z 1615/1624 03006KT 9999 FEW030TCU BKN070 TEMPO 1615/1619 FEW040CB PROB40 TEMPO 1619/1623 SHRA BKN008 SCT040CB

أرصاد الطقس والتوقعات من أكثر من 4000 مطار (تقارير الطقس للمطار METAR والتنبؤ بالطقس بالمطارTAF).

المحطات المتاحة هي النقط الصفراء والحمراء على الخريطة.

حرك المؤشر فوق النقطة لمعرفة اسم المحطة.

ثم انقر لمعرفة أرصاد وتوقعات الطقس.

لتغيير الخارطة: اضغط على الأزرار الخضراء مع رمز الصليب الأسود للتكبير. على الزر الأخضر مع شرطة للتصغير، أو على الأسهم الخضراء للخرائط المجاورة.


METAR-TAF: